Time;durP1;ratioP1;P1;durP2;ratioP2;P2;SDS_P1;SDS_P2;PMS_P1;PMS_P2;Temp;Humidity;BMP_temperature;BMP_pressure;BME280_temperature;BME280_humidity;BME280_pressure;Samples;Min_cycle;Max_cycle;Signal;HPM_P1;HPM_P2
2022/12/03 00:01:31;;;;;;;28.58;13.15;;;3.70;99.90;;;;;;6303426;22;20011;-86
2022/12/03 00:03:57;;;;;;;26.70;11.73;;;3.70;99.90;;;;;;6303723;22;20097;-86
2022/12/03 00:06:23;;;;;;;29.52;13.32;;;3.80;99.90;;;;;;6276039;22;20145;-85
2022/12/03 00:08:49;;;;;;;26.85;12.90;;;3.80;99.90;;;;;;6303282;22;20037;-86
2022/12/03 00:11:15;;;;;;;25.65;11.88;;;3.80;99.90;;;;;;6275147;22;20438;-86
2022/12/03 00:13:40;;;;;;;28.65;12.82;;;3.80;99.90;;;;;;6274933;22;20019;-86
2022/12/03 00:16:06;;;;;;;26.55;13.13;;;3.90;99.90;;;;;;6303187;22;20013;-87
2022/12/03 00:18:32;;;;;;;24.73;12.25;;;3.90;99.90;;;;;;6275644;22;20007;-86
2022/12/03 00:20:57;;;;;;;26.27;12.13;;;3.90;99.90;;;;;;6275665;22;20015;-86
2022/12/03 00:23:24;;;;;;;27.50;12.63;;;3.90;99.90;;;;;;6275160;22;20047;-86
2022/12/03 00:25:49;;;;;;;24.75;12.23;;;3.90;99.90;;;;;;6302398;22;20030;-86
2022/12/03 00:28:15;;;;;;;23.50;11.50;;;3.90;99.90;;;;;;6302966;22;20019;-85
2022/12/03 00:30:41;;;;;;;26.25;12.00;;;3.90;99.90;;;;;;6302309;22;20007;-86
2022/12/03 00:33:06;;;;;;;25.92;12.45;;;4.00;99.90;;;;;;6303343;22;20069;-86
2022/12/03 00:35:32;;;;;;;19.98;10.23;;;4.00;99.90;;;;;;6275338;22;20043;-86
2022/12/03 00:37:58;;;;;;;25.38;12.18;;;4.00;99.90;;;;;;6249719;22;20015;-87
2022/12/03 00:40:23;;;;;;;24.95;12.13;;;4.00;99.90;;;;;;6275705;22;20381;-87
2022/12/03 00:42:49;;;;;;;22.92;11.30;;;4.00;99.90;;;;;;6274421;22;20483;-87
2022/12/03 00:45:15;;;;;;;23.02;11.35;;;4.00;99.90;;;;;;6303940;22;20015;-86
2022/12/03 00:47:40;;;;;;;20.35;11.38;;;4.00;99.90;;;;;;6302624;22;20102;-86
2022/12/03 00:50:07;;;;;;;20.70;10.57;;;4.30;99.90;;;;;;6250282;22;20051;-86
2022/12/03 00:52:32;;;;;;;23.70;11.90;;;4.00;99.90;;;;;;6275559;22;20510;-86
2022/12/03 00:54:58;;;;;;;26.63;11.93;;;4.00;99.90;;;;;;6303175;22;20049;-86
2022/12/03 00:57:24;;;;;;;23.13;11.70;;;4.00;99.90;;;;;;6303349;22;20086;-86
2022/12/03 00:59:49;;;;;;;23.60;11.98;;;4.70;99.90;;;;;;6302635;22;20022;-86
2022/12/03 01:02:15;;;;;;;22.58;11.30;;;4.00;99.90;;;;;;6303103;22;20053;-86
2022/12/03 01:04:41;;;;;;;21.33;11.77;;;4.00;99.90;;;;;;6273704;22;20332;-86
2022/12/03 01:07:06;;;;;;;23.73;12.07;;;4.00;99.90;;;;;;6301813;22;20011;-86
2022/12/03 01:09:32;;;;;;;22.70;11.85;;;4.00;99.90;;;;;;6274794;22;20011;-86
2022/12/03 01:11:58;;;;;;;22.75;11.52;;;4.00;99.90;;;;;;6302364;22;20019;-86
2022/12/03 01:14:24;;;;;;;23.92;12.02;;;4.00;99.90;;;;;;6302753;22;20611;-86
2022/12/03 01:16:49;;;;;;;24.20;11.88;;;4.00;99.90;;;;;;6302430;22;20018;-86
2022/12/03 01:19:16;;;;;;;26.42;12.52;;;4.00;99.90;;;;;;6302574;22;20011;-85
2022/12/03 01:21:47;;;;;;;23.58;11.98;;;4.00;99.90;;;;;;6302039;22;20458;-86
2022/12/03 01:24:13;;;;;;;22.42;11.15;;;4.00;99.90;;;;;;6275965;22;20021;-86
2022/12/03 01:26:39;;;;;;;26.65;12.18;;;4.00;99.90;;;;;;6302332;22;20007;-86
2022/12/03 01:29:05;;;;;;;22.67;11.00;;;4.00;99.90;;;;;;6302748;22;20465;-86
2022/12/03 01:34:15;;;;;;;23.48;12.25;;;3.80;99.90;;;;;;6275027;22;20023;-87
2022/12/03 01:36:40;;;;;;;23.40;11.77;;;3.80;99.90;;;;;;6301750;22;20418;-86
2022/12/03 01:39:08;;;;;;;22.38;11.68;;;3.70;99.90;;;;;;6301667;22;20023;-86
2022/12/03 01:41:35;;;;;;;25.77;11.68;;;3.70;99.90;;;;;;6274632;22;20008;-86
2022/12/03 01:44:13;;;;;;;22.88;12.90;;;3.60;99.90;;;;;;6302897;22;20038;-86
2022/12/03 01:46:40;;;;;;;25.02;12.52;;;3.50;99.90;;;;;;6275252;22;20011;-86
2022/12/03 01:49:12;;;;;;;22.55;12.43;;;3.50;99.90;;;;;;6301727;22;20011;-87
2022/12/03 01:51:38;;;;;;;23.30;12.35;;;3.50;99.90;;;;;;6302111;22;20056;-86
2022/12/03 01:54:03;;;;;;;24.95;12.32;;;3.50;99.90;;;;;;6302760;22;20460;-87
2022/12/03 01:56:29;;;;;;;28.65;12.13;;;3.50;99.90;;;;;;6301744;22;20007;-86
2022/12/03 01:58:55;;;;;;;20.38;12.25;;;3.50;99.90;;;;;;6303671;22;20095;-86
2022/12/03 02:01:21;;;;;;;27.33;11.82;;;3.50;99.90;;;;;;6304591;22;20026;-86
2022/12/03 02:03:46;;;;;;;24.23;12.38;;;3.50;99.90;;;;;;6304898;22;20228;-86
2022/12/03 02:06:19;;;;;;;25.67;12.82;;;3.50;99.90;;;;;;6304928;22;20011;-85
2022/12/03 02:08:47;;;;;;;24.80;11.82;;;3.60;99.90;;;;;;6277498;22;20061;-84
2022/12/03 02:11:20;;;;;;;25.58;13.77;;;3.60;99.90;;;;;;6303725;22;20677;-85
2022/12/03 02:13:50;;;;;;;25.75;13.00;;;3.60;99.90;;;;;;6276508;22;20015;-86
2022/12/03 02:16:15;;;;;;;23.10;12.23;;;3.60;99.90;;;;;;6302552;22;20065;-86
2022/12/03 02:18:42;;;;;;;25.83;12.45;;;3.70;99.90;;;;;;6304045;22;20043;-87
2022/12/03 02:21:11;;;;;;;27.35;13.20;;;3.60;99.90;;;;;;6304847;22;20015;-86
2022/12/03 02:23:59;;;;;;;28.35;13.63;;;3.60;99.90;;;;;;6303871;22;20015;-86
2022/12/03 02:26:25;;;;;;;22.98;12.30;;;3.70;99.90;;;;;;6276814;22;20019;-86
2022/12/03 02:28:51;;;;;;;26.60;13.25;;;3.70;99.90;;;;;;6276734;22;20021;-86
2022/12/03 02:31:16;;;;;;;25.98;13.65;;;3.70;99.90;;;;;;6276462;22;20015;-86
2022/12/03 02:33:42;;;;;;;21.83;12.02;;;3.70;99.90;;;;;;6304457;22;20007;-86
2022/12/03 02:36:08;;;;;;;25.15;13.50;;;3.70;99.90;;;;;;6303869;22;20102;-87
2022/12/03 02:38:35;;;;;;;24.77;12.98;;;3.70;99.90;;;;;;6303694;22;20018;-86
2022/12/03 02:41:06;;;;;;;21.02;11.43;;;3.70;99.90;;;;;;6304158;22;20038;-85
2022/12/03 02:43:32;;;;;;;24.50;12.70;;;3.80;99.90;;;;;;6303789;22;20019;-86
2022/12/03 02:46:01;;;;;;;25.65;13.07;;;3.80;99.90;;;;;;6302858;22;20012;-86
2022/12/03 02:48:38;;;;;;;26.77;13.25;;;3.80;99.90;;;;;;6250689;22;20015;-86
2022/12/03 02:51:07;;;;;;;28.42;13.52;;;3.80;99.90;;;;;;6303704;22;20018;-86
2022/12/03 02:53:43;;;;;;;24.08;12.57;;;3.80;99.90;;;;;;6303087;22;20019;-86
2022/12/03 02:56:15;;;;;;;24.50;11.82;;;3.80;99.90;;;;;;6303987;22;20018;-86
2022/12/03 02:58:42;;;;;;;26.33;13.70;;;3.80;99.90;;;;;;6275500;22;20357;-86
2022/12/03 03:01:09;;;;;;;23.60;12.45;;;3.80;99.90;;;;;;6303243;22;20479;-86
2022/12/03 03:03:36;;;;;;;25.08;13.00;;;3.80;99.90;;;;;;6276249;22;20041;-85
2022/12/03 03:06:03;;;;;;;25.70;12.77;;;3.80;99.90;;;;;;6303674;22;20011;-86
2022/12/03 03:08:30;;;;;;;26.33;12.85;;;3.80;99.90;;;;;;6302434;22;20083;-86
2022/12/03 03:10:59;;;;;;;25.85;13.27;;;3.80;99.90;;;;;;6276141;22;20017;-86
2022/12/03 03:13:24;;;;;;;25.92;14.07;;;3.80;99.90;;;;;;6303689;22;20007;-86
2022/12/03 03:15:50;;;;;;;23.75;12.75;;;3.80;99.90;;;;;;6275816;22;20015;-86
2022/12/03 03:18:17;;;;;;;24.50;12.15;;;3.80;99.90;;;;;;6275578;22;20007;-86
2022/12/03 03:20:43;;;;;;;25.17;13.80;;;3.80;99.90;;;;;;6275805;22;20011;-86
2022/12/03 03:23:20;;;;;;;24.38;13.18;;;3.80;99.90;;;;;;6302337;22;20490;-85
2022/12/03 03:26:08;;;;;;;24.50;13.05;;;3.80;99.90;;;;;;6250098;22;20027;-86
2022/12/03 03:28:37;;;;;;;24.50;12.80;;;3.80;99.90;;;;;;6274768;22;20051;-86
2022/12/03 03:31:05;;;;;;;23.60;12.43;;;3.80;99.90;;;;;;6302876;22;20438;-86
2022/12/03 03:33:31;;;;;;;24.75;12.43;;;3.70;99.90;;;;;;6274854;22;20012;-86
2022/12/03 03:35:59;;;;;;;25.52;12.90;;;3.80;99.90;;;;;;6275808;22;20010;-85
2022/12/03 03:38:27;;;;;;;23.85;12.93;;;3.80;99.90;;;;;;6273644;22;20114;-86
2022/12/03 03:40:53;;;;;;;24.55;12.80;;;3.80;99.90;;;;;;6302719;22;20489;-85
2022/12/03 03:43:23;;;;;;;25.40;14.25;;;3.80;99.90;;;;;;6303536;22;20034;-86
2022/12/03 03:45:49;;;;;;;24.00;13.10;;;3.80;99.90;;;;;;6301798;22;20011;-85
2022/12/03 03:48:15;;;;;;;24.48;12.82;;;3.80;99.90;;;;;;6250576;22;20026;-85
2022/12/03 03:50:42;;;;;;;23.42;12.90;;;3.80;99.90;;;;;;6275643;22;20003;-86
2022/12/03 03:53:08;;;;;;;23.10;12.50;;;3.80;99.90;;;;;;6275550;22;20446;-86
2022/12/03 03:55:34;;;;;;;26.60;12.90;;;3.80;99.90;;;;;;6276290;22;20038;-86
2022/12/03 03:58:00;;;;;;;23.60;12.30;;;3.80;99.90;;;;;;6274565;22;20587;-86
2022/12/03 04:00:25;;;;;;;25.80;13.55;;;3.70;99.90;;;;;;6275574;22;20011;-86
2022/12/03 04:02:51;;;;;;;24.42;12.55;;;3.70;99.90;;;;;;6275364;22;20476;-86
2022/12/03 04:05:20;;;;;;;23.65;12.15;;;3.00;99.90;;;;;;6274743;22;20394;-86
2022/12/03 04:07:46;;;;;;;26.13;13.55;;;3.80;99.90;;;;;;6303272;22;20065;-84
2022/12/03 04:12:57;;;;;;;22.50;11.98;;;3.80;99.90;;;;;;6302692;22;20015;-86
2022/12/03 04:15:23;;;;;;;23.23;11.95;;;3.70;99.90;;;;;;6303165;22;20338;-86
2022/12/03 04:18:41;;;;;;;24.95;12.60;;;3.70;99.90;;;;;;6274903;22;20102;-86
2022/12/03 04:20:35;;;;;;;24.88;12.57;;;3.70;99.90;;;;;;6301617;22;20450;-86
2022/12/03 04:23:01;;;;;;;24.45;12.88;;;3.70;99.90;;;;;;6302584;22;20019;-86
2022/12/03 04:28:47;;;;;;;24.63;12.65;;;3.70;99.90;;;;;;6303027;22;20014;-85
2022/12/03 04:36:39;;;;;;;26.63;12.77;;;3.70;99.90;;;;;;6273456;22;20019;-85
2022/12/03 04:39:05;;;;;;;27.02;13.63;;;3.70;99.90;;;;;;6300314;22;20014;-85
2022/12/03 04:41:31;;;;;;;27.63;13.57;;;3.70;99.90;;;;;;6273101;22;20032;-86
2022/12/03 04:46:40;;;;;;;27.40;13.38;;;3.70;99.90;;;;;;6275104;22;20019;-85
2022/12/03 04:49:06;;;;;;;26.63;14.30;;;3.70;99.90;;;;;;6274559;22;20015;-86
2022/12/03 04:51:32;;;;;;;23.33;12.02;;;3.70;99.90;;;;;;6275020;22;20488;-86
2022/12/03 04:53:57;;;;;;;25.63;12.82;;;3.70;99.90;;;;;;6249551;22;20350;-86
2022/12/03 04:56:23;;;;;;;24.65;13.15;;;3.70;99.90;;;;;;6275552;22;20039;-85
2022/12/03 04:58:48;;;;;;;28.08;13.80;;;3.70;99.90;;;;;;6275013;22;20015;-87
2022/12/03 05:01:14;;;;;;;22.10;12.23;;;3.70;99.90;;;;;;6302686;22;20012;-86
2022/12/03 05:03:40;;;;;;;27.77;13.82;;;3.70;99.90;;;;;;6302316;22;20015;-86
2022/12/03 05:06:06;;;;;;;26.20;13.77;;;3.60;99.90;;;;;;6275207;22;20015;-86
2022/12/03 05:08:32;;;;;;;24.92;12.75;;;3.60;99.90;;;;;;6274984;22;20082;-86
2022/12/03 05:10:57;;;;;;;25.65;13.85;;;3.60;99.90;;;;;;6275505;22;20022;-86
2022/12/03 05:13:23;;;;;;;28.10;13.85;;;3.60;99.90;;;;;;6274833;22;20411;-86
2022/12/03 05:15:48;;;;;;;24.20;13.82;;;3.60;99.90;;;;;;6274255;22;20011;-86
2022/12/03 05:18:14;;;;;;;25.70;12.98;;;3.60;99.90;;;;;;6301180;22;20272;-86
2022/12/03 05:20:40;;;;;;;28.40;13.73;;;3.60;99.90;;;;;;6301999;22;20018;-86
2022/12/03 05:23:06;;;;;;;23.05;12.65;;;3.60;99.90;;;;;;6249209;22;20121;-87
2022/12/03 05:25:31;;;;;;;24.83;12.57;;;3.60;99.90;;;;;;6302678;22;20021;-86
2022/12/03 05:27:57;;;;;;;28.40;14.05;;;3.60;99.90;;;;;;6302398;22;20007;-86
2022/12/03 05:30:23;;;;;;;27.42;13.10;;;3.60;99.90;;;;;;6302558;22;20065;-86
2022/12/03 05:32:49;;;;;;;25.70;13.27;;;3.60;99.90;;;;;;6273575;22;20015;-86
2022/12/03 05:35:14;;;;;;;24.77;13.75;;;3.60;99.90;;;;;;6300536;22;20508;-86
2022/12/03 05:37:40;;;;;;;24.65;12.93;;;3.50;99.90;;;;;;6273262;22;20377;-86
2022/12/03 05:40:06;;;;;;;26.60;12.95;;;3.50;99.90;;;;;;6303238;22;20008;-86
2022/12/03 05:45:17;;;;;;;26.60;13.43;;;3.50;99.90;;;;;;6272136;22;20156;-85
2022/12/03 05:47:43;;;;;;;27.77;12.35;;;3.50;99.90;;;;;;6248643;22;20015;-85
2022/12/03 05:50:09;;;;;;;29.73;15.50;;;3.40;99.90;;;;;;6302207;22;20073;-86
2022/12/03 05:52:34;;;;;;;29.33;13.95;;;3.40;99.90;;;;;;6275247;22;20076;-86
2022/12/03 05:55:03;;;;;;;28.52;13.98;;;3.40;99.90;;;;;;6274387;22;20019;-86
2022/12/03 05:57:29;;;;;;;27.33;14.32;;;3.40;99.90;;;;;;6274279;22;20115;-84
2022/12/03 05:59:55;;;;;;;26.27;13.52;;;3.40;99.90;;;;;;6249310;22;20057;-86
2022/12/03 06:02:20;;;;;;;26.70;13.23;;;3.40;99.90;;;;;;6301860;22;20011;-86
2022/12/03 06:04:46;;;;;;;30.02;14.30;;;3.40;99.90;;;;;;6302998;22;20012;-86
2022/12/03 06:07:12;;;;;;;27.15;13.43;;;3.30;99.90;;;;;;6302760;22;20031;-86
2022/12/03 06:09:37;;;;;;;24.33;12.82;;;3.30;99.90;;;;;;6302549;22;20418;-85
2022/12/03 06:12:05;;;;;;;30.00;12.88;;;3.30;99.90;;;;;;6249673;22;20430;-85
2022/12/03 06:14:33;;;;;;;27.55;13.35;;;3.30;99.90;;;;;;6274799;22;20057;-86
2022/12/03 06:16:59;;;;;;;26.98;13.68;;;3.30;99.90;;;;;;6274785;22;20011;-85
2022/12/03 06:19:24;;;;;;;23.70;12.63;;;3.20;99.90;;;;;;6301307;22;20022;-84
2022/12/03 06:21:50;;;;;;;26.40;13.63;;;3.20;99.90;;;;;;6274074;22;20375;-85
2022/12/03 06:24:16;;;;;;;27.00;12.35;;;3.20;99.90;;;;;;6302408;22;20007;-86
2022/12/03 06:26:41;;;;;;;25.98;13.05;;;3.20;99.90;;;;;;6301847;22;20030;-85
2022/12/03 06:29:07;;;;;;;25.27;12.43;;;3.20;99.90;;;;;;6246689;22;20070;-86
2022/12/03 06:31:32;;;;;;;30.70;13.55;;;3.20;99.90;;;;;;6273557;22;20094;-86
2022/12/03 06:33:58;;;;;;;26.85;12.57;;;3.20;99.90;;;;;;6273842;22;20087;-86
2022/12/03 06:36:26;;;;;;;26.88;11.90;;;3.20;99.90;;;;;;6275378;22;20007;-86
2022/12/03 06:38:52;;;;;;;27.23;13.55;;;3.20;99.90;;;;;;6302032;22;20047;-86
2022/12/03 06:41:18;;;;;;;27.63;12.27;;;3.20;99.90;;;;;;6272926;22;20011;-86
2022/12/03 06:43:43;;;;;;;23.80;11.35;;;3.10;99.90;;;;;;6274915;22;20018;-85
2022/12/03 06:46:09;;;;;;;24.05;13.20;;;3.10;99.90;;;;;;6303226;22;20133;-86
2022/12/03 06:48:34;;;;;;;25.30;11.65;;;3.10;99.90;;;;;;6303728;22;20453;-88
2022/12/03 06:51:00;;;;;;;24.48;12.10;;;3.10;99.90;;;;;;6303567;22;20418;-86
2022/12/03 06:53:25;;;;;;;27.40;13.93;;;3.10;99.90;;;;;;6303698;22;20344;-86
2022/12/03 06:55:51;;;;;;;30.92;13.52;;;3.10;99.90;;;;;;6275497;22;20015;-87
2022/12/03 06:58:16;;;;;;;24.90;12.35;;;3.40;99.90;;;;;;6302321;22;20082;-87
2022/12/03 07:00:42;;;;;;;24.42;13.20;;;3.10;99.90;;;;;;6301922;22;20084;-86
2022/12/03 07:03:08;;;;;;;24.35;11.65;;;3.10;99.90;;;;;;6303702;22;20631;-86
2022/12/03 07:05:33;;;;;;;27.45;13.00;;;3.10;99.90;;;;;;6302397;22;20015;-86
2022/12/03 07:07:59;;;;;;;26.77;14.15;;;3.10;99.90;;;;;;6302567;22;20108;-85
2022/12/03 07:10:24;;;;;;;29.73;13.80;;;3.10;99.90;;;;;;6303363;22;20037;-87
2022/12/03 07:12:50;;;;;;;28.52;13.50;;;3.10;99.90;;;;;;6304060;22;20011;-87
2022/12/03 07:15:16;;;;;;;25.65;14.20;;;3.10;99.90;;;;;;6303185;22;20065;-86
2022/12/03 07:17:41;;;;;;;31.23;13.70;;;3.10;99.90;;;;;;6276095;22;20091;-86
2022/12/03 07:20:08;;;;;;;24.73;12.85;;;3.10;99.90;;;;;;6303146;22;20078;-85
2022/12/03 07:22:33;;;;;;;27.23;13.02;;;3.10;99.90;;;;;;6270231;22;20023;-86
2022/12/03 07:24:59;;;;;;;26.15;12.77;;;3.10;99.90;;;;;;6270646;22;20537;-86
2022/12/03 07:27:24;;;;;;;24.58;12.88;;;3.10;99.90;;;;;;6272530;22;20057;-86
2022/12/03 07:29:50;;;;;;;28.02;13.68;;;3.10;99.90;;;;;;6271577;22;20011;-86
2022/12/03 07:32:16;;;;;;;26.30;13.48;;;3.10;99.90;;;;;;6296184;22;20015;-86
2022/12/03 07:34:41;;;;;;;30.35;13.82;;;3.10;99.90;;;;;;6271297;22;20382;-86
2022/12/03 07:37:07;;;;;;;34.13;13.90;;;3.10;99.90;;;;;;6272240;22;20016;-85
2022/12/03 07:39:32;;;;;;;29.70;13.57;;;3.10;99.90;;;;;;6272231;22;20016;-90
2022/12/03 07:41:58;;;;;;;25.85;13.73;;;3.10;99.90;;;;;;6296898;22;20015;-87
2022/12/03 07:44:24;;;;;;;28.33;14.38;;;3.10;99.90;;;;;;6271657;22;20042;-86
2022/12/03 07:46:49;;;;;;;28.27;14.52;;;3.10;99.90;;;;;;6244887;22;20020;-86
2022/12/03 07:49:15;;;;;;;27.85;14.02;;;3.10;99.90;;;;;;6272355;22;20023;-87
2022/12/03 07:51:41;;;;;;;28.95;13.93;;;3.00;99.90;;;;;;6272828;22;20511;-86
2022/12/03 07:54:07;;;;;;;25.60;13.93;;;3.00;99.90;;;;;;6272688;22;20093;-86
2022/12/03 07:56:33;;;;;;;26.88;13.73;;;3.00;99.90;;;;;;6271792;22;20016;-86
2022/12/03 07:58:59;;;;;;;25.90;13.77;;;3.00;99.90;;;;;;6271621;22;20097;-86
2022/12/03 08:01:24;;;;;;;28.33;13.77;;;3.00;99.90;;;;;;6271782;22;20373;-86
2022/12/03 08:03:50;;;;;;;27.90;13.30;;;3.00;99.90;;;;;;6271043;22;20086;-87
2022/12/03 08:06:15;;;;;;;30.77;14.32;;;3.00;99.90;;;;;;6271112;22;20019;-86
2022/12/03 08:08:42;;;;;;;29.75;15.57;;;3.00;99.90;;;;;;6270647;22;20087;-86
2022/12/03 08:11:13;;;;;;;27.90;14.05;;;3.00;99.90;;;;;;6270970;22;20015;-86
2022/12/03 08:13:39;;;;;;;31.40;14.68;;;3.00;99.90;;;;;;6269724;22;20011;-86
2022/12/03 08:16:15;;;;;;;33.20;15.43;;;3.00;99.90;;;;;;6271506;22;20023;-87
2022/12/03 08:18:41;;;;;;;30.63;15.38;;;3.00;99.90;;;;;;6270656;22;20018;-86
2022/12/03 08:21:14;;;;;;;29.35;14.38;;;3.00;99.90;;;;;;6271334;22;20086;-86
2022/12/03 08:23:40;;;;;;;28.05;14.63;;;3.00;99.90;;;;;;6297333;22;20019;-86
2022/12/03 08:26:23;;;;;;;29.58;15.23;;;3.00;99.90;;;;;;6302631;22;20043;-86
2022/12/03 08:28:50;;;;;;;28.83;13.98;;;3.00;99.90;;;;;;6302292;22;20068;-86
2022/12/03 08:31:19;;;;;;;28.58;14.65;;;3.00;99.90;;;;;;6301065;22;20026;-91
2022/12/03 08:33:47;;;;;;;32.65;15.45;;;2.90;99.90;;;;;;6302294;22;20026;-91
2022/12/03 08:36:24;;;;;;;27.75;14.45;;;2.90;99.90;;;;;;6301816;22;20019;-88
2022/12/03 08:39:04;;;;;;;30.13;14.23;;;2.90;99.90;;;;;;6302691;22;20045;-88
2022/12/03 08:44:14;;;;;;;30.25;14.70;;;2.90;99.90;;;;;;6301295;22;20023;-89
2022/12/03 08:46:39;;;;;;;29.60;14.38;;;2.90;99.90;;;;;;6301303;22;20037;-84
2022/12/03 08:49:05;;;;;;;29.25;15.02;;;2.90;99.90;;;;;;6274407;22;20026;-85
2022/12/03 08:51:31;;;;;;;27.33;14.40;;;2.80;99.90;;;;;;6300655;22;20334;-85
2022/12/03 08:54:06;;;;;;;29.42;15.57;;;2.80;99.90;;;;;;6300620;22;20065;-84
2022/12/03 08:56:35;;;;;;;32.40;14.40;;;2.80;99.90;;;;;;6272962;22;20037;-85
2022/12/03 08:59:22;;;;;;;30.10;14.50;;;2.80;99.90;;;;;;6248413;22;20019;-85
2022/12/03 09:01:50;;;;;;;31.42;15.00;;;2.80;99.90;;;;;;6301402;22;20015;-85
2022/12/03 09:04:27;;;;;;;27.17;14.57;;;2.80;99.90;;;;;;6273781;22;20007;-84
2022/12/03 09:06:53;;;;;;;33.10;15.30;;;2.80;99.90;;;;;;6301286;22;20042;-87
2022/12/03 09:09:19;;;;;;;30.33;15.32;;;2.80;99.90;;;;;;6301054;22;20011;-88
2022/12/03 09:11:45;;;;;;;30.85;14.63;;;2.80;99.90;;;;;;6272992;22;20092;-89
2022/12/03 09:14:11;;;;;;;30.92;14.88;;;2.80;99.90;;;;;;6274384;22;20022;-89
2022/12/03 09:16:37;;;;;;;31.55;16.13;;;2.80;99.90;;;;;;6274113;22;20015;-88
2022/12/03 09:19:03;;;;;;;34.28;15.82;;;2.80;99.90;;;;;;6302280;22;20007;-88
2022/12/03 09:21:29;;;;;;;30.27;15.13;;;2.80;99.90;;;;;;6302284;22;20090;-89
2022/12/03 09:23:54;;;;;;;31.10;15.65;;;2.80;99.90;;;;;;6273304;22;20050;-88
2022/12/03 09:26:20;;;;;;;35.97;17.42;;;2.80;99.90;;;;;;6273560;22;20023;-88
2022/12/03 09:28:47;;;;;;;36.67;15.77;;;2.80;99.90;;;;;;6274266;22;20307;-89
2022/12/03 09:31:13;;;;;;;31.45;15.73;;;2.80;99.90;;;;;;6301797;22;20047;-89
2022/12/03 09:33:39;;;;;;;35.60;15.95;;;2.90;99.90;;;;;;6301741;22;20014;-88
2022/12/03 09:36:05;;;;;;;33.67;16.52;;;2.90;99.90;;;;;;6301580;22;20354;-89
2022/12/03 09:38:31;;;;;;;31.48;15.90;;;2.90;99.90;;;;;;6301011;22;20057;-88
2022/12/03 09:40:56;;;;;;;34.08;16.83;;;2.90;99.90;;;;;;6301865;22;20015;-90
2022/12/03 09:43:22;;;;;;;35.97;16.67;;;2.90;99.90;;;;;;6301832;22;20007;-88
2022/12/03 09:45:48;;;;;;;38.33;19.48;;;2.90;99.90;;;;;;6301645;22;20046;-89
2022/12/03 09:48:17;;;;;;;31.23;15.25;;;2.90;99.90;;;;;;6274765;22;20400;-92
2022/12/03 09:50:43;;;;;;;32.45;15.90;;;2.90;99.90;;;;;;6301533;22;20015;-89
2022/12/03 09:53:16;;;;;;;32.53;15.05;;;2.90;99.90;;;;;;6274039;22;20003;-87
2022/12/03 09:55:44;;;;;;;34.60;16.37;;;2.90;99.90;;;;;;6301813;22;20007;-88
2022/12/03 09:58:12;;;;;;;33.40;16.35;;;2.90;99.90;;;;;;6301762;22;20011;-87
2022/12/03 10:00:38;;;;;;;33.72;15.82;;;2.90;99.90;;;;;;6302349;22;20011;-88
2022/12/03 10:03:05;;;;;;;31.15;14.63;;;2.90;99.90;;;;;;6274578;22;20033;-87
2022/12/03 10:05:32;;;;;;;32.42;15.75;;;2.90;99.90;;;;;;6301853;22;20068;-87
2022/12/03 10:08:04;;;;;;;32.97;16.38;;;2.90;99.90;;;;;;6300529;22;20007;-87
2022/12/03 10:10:30;;;;;;;37.22;17.42;;;2.90;99.90;;;;;;6273304;22;20023;-86
2022/12/03 10:12:56;;;;;;;33.70;15.73;;;3.00;99.90;;;;;;6301669;22;20438;-86
2022/12/03 10:15:22;;;;;;;33.88;15.93;;;3.00;99.90;;;;;;6273586;22;20011;-87
2022/12/03 10:17:51;;;;;;;34.88;15.63;;;3.00;99.90;;;;;;6274010;22;20012;-86
2022/12/03 10:20:19;;;;;;;31.77;15.38;;;3.00;99.90;;;;;;6276026;22;20495;-86
2022/12/03 10:22:47;;;;;;;32.78;16.55;;;3.00;99.90;;;;;;6274676;22;20023;-86
2022/12/03 10:25:15;;;;;;;33.60;16.58;;;3.00;99.90;;;;;;6276015;22;20021;-87
2022/12/03 10:27:41;;;;;;;33.47;16.02;;;3.10;99.90;;;;;;6304080;22;20065;-87
2022/12/03 10:30:19;;;;;;;33.45;16.33;;;3.00;99.90;;;;;;6276236;22;20015;-88
2022/12/03 10:32:47;;;;;;;32.72;16.50;;;3.00;99.90;;;;;;6275967;22;20533;-87
2022/12/03 10:35:16;;;;;;;33.63;16.67;;;3.00;99.90;;;;;;6302389;22;20250;-87
2022/12/03 10:37:55;;;;;;;31.58;15.98;;;3.10;99.90;;;;;;6303414;22;20019;-88
2022/12/03 10:40:27;;;;;;;32.53;15.57;;;3.00;99.90;;;;;;6302317;22;20011;-88
2022/12/03 10:43:16;;;;;;;32.13;15.52;;;3.10;99.90;;;;;;6303245;22;20011;-89
2022/12/03 10:45:43;;;;;;;34.05;16.58;;;3.10;99.90;;;;;;6303542;22;20015;-88
2022/12/03 10:48:13;;;;;;;34.78;17.40;;;3.10;99.90;;;;;;6303489;22;20449;-88
2022/12/03 10:51:02;;;;;;;34.70;16.15;;;3.10;99.90;;;;;;6302958;22;20090;-88
2022/12/03 10:53:31;;;;;;;31.85;16.52;;;3.10;99.90;;;;;;6276009;22;20003;-88
2022/12/03 10:56:03;;;;;;;35.50;16.48;;;3.10;99.90;;;;;;6303027;22;20089;-87
2022/12/03 10:58:33;;;;;;;35.35;17.45;;;3.10;99.90;;;;;;6275439;22;20435;-87
2022/12/03 11:01:02;;;;;;;34.40;16.20;;;3.10;99.90;;;;;;6275786;22;20011;-87
2022/12/03 11:03:29;;;;;;;30.20;15.07;;;3.10;99.90;;;;;;6275475;22;20458;-87
2022/12/03 11:05:56;;;;;;;38.63;18.33;;;3.50;99.90;;;;;;6273250;22;20212;-86
2022/12/03 11:08:31;;;;;;;36.17;16.92;;;3.10;99.90;;;;;;6302840;22;20110;-87
2022/12/03 11:11:22;;;;;;;36.08;17.88;;;3.10;99.90;;;;;;6235051;22;20075;-86
2022/12/03 11:14:00;;;;;;;32.35;16.20;;;3.10;99.90;;;;;;6274774;22;20019;-86
2022/12/03 11:16:38;;;;;;;37.97;17.23;;;3.10;99.90;;;;;;6303580;22;20082;-88
2022/12/03 11:19:12;;;;;;;36.80;15.82;;;3.70;99.90;;;;;;6303377;22;20015;-87
2022/12/03 11:22:06;;;;;;;34.45;15.88;;;3.40;99.90;;;;;;6302507;22;20019;-86
2022/12/03 11:24:39;;;;;;;33.47;16.90;;;3.10;99.90;;;;;;6303271;22;20046;-84
2022/12/03 11:27:12;;;;;;;34.30;16.73;;;3.20;99.90;;;;;;6276512;22;20437;-86
2022/12/03 11:29:51;;;;;;;35.10;16.80;;;3.10;99.90;;;;;;6274518;22;20034;-85
2022/12/03 11:32:41;;;;;;;35.08;17.15;;;3.10;99.90;;;;;;6303299;22;20087;-85
2022/12/03 11:35:23;;;;;;;32.55;16.27;;;3.20;99.90;;;;;;6274787;22;20020;-85
2022/12/03 11:37:49;;;;;;;37.80;16.80;;;3.20;99.90;;;;;;6303069;22;20011;-85
2022/12/03 11:40:15;;;;;;;31.75;16.00;;;3.20;99.90;;;;;;6303469;22;20106;-84
2022/12/03 11:42:40;;;;;;;36.50;17.08;;;3.20;99.90;;;;;;6303457;22;20019;-84
2022/12/03 11:45:09;;;;;;;35.47;17.13;;;3.20;99.90;;;;;;6276695;22;20038;-84
2022/12/03 11:47:59;;;;;;;35.85;17.23;;;3.20;99.90;;;;;;6278232;22;20015;-85
2022/12/03 11:50:34;;;;;;;35.30;15.98;;;3.20;99.90;;;;;;6305084;22;20007;-86
2022/12/03 11:53:25;;;;;;;32.25;15.68;;;3.20;99.90;;;;;;6305782;22;20011;-86
2022/12/03 11:56:09;;;;;;;32.92;16.48;;;3.20;99.90;;;;;;6279753;22;20488;-87
2022/12/03 11:58:37;;;;;;;35.47;16.65;;;3.20;99.90;;;;;;6280136;22;20033;-87
2022/12/03 12:01:06;;;;;;;34.60;15.85;;;3.20;99.90;;;;;;6278586;22;20035;-87
2022/12/03 12:03:33;;;;;;;35.38;17.35;;;3.20;99.90;;;;;;6306561;22;20011;-87
2022/12/03 12:06:04;;;;;;;37.85;18.05;;;3.30;99.90;;;;;;6306027;22;20013;-87
2022/12/03 12:08:31;;;;;;;34.40;16.83;;;3.40;99.90;;;;;;6307578;22;20040;-87
2022/12/03 12:10:57;;;;;;;33.47;16.88;;;3.30;99.90;;;;;;6253688;22;20013;-88
2022/12/03 12:13:43;;;;;;;32.65;15.50;;;3.30;99.90;;;;;;6308561;22;20015;-87
2022/12/03 12:16:10;;;;;;;35.22;17.25;;;3.30;99.90;;;;;;6289587;22;20112;-89
2022/12/03 12:18:50;;;;;;;31.85;15.75;;;3.40;99.90;;;;;;6281343;22;20015;-88
2022/12/03 12:21:41;;;;;;;33.63;15.65;;;3.30;99.90;;;;;;6288706;22;20015;-94
2022/12/03 12:24:46;;;;;;;34.13;16.42;;;3.30;99.90;;;;;;6312655;22;20023;-87
2022/12/03 12:27:36;;;;;;;35.63;16.20;;;3.30;99.90;;;;;;6254881;22;20012;-87
2022/12/03 12:30:07;;;;;;;34.78;16.98;;;3.30;99.90;;;;;;6279109;22;20021;-87
2022/12/03 12:32:46;;;;;;;32.45;14.95;;;3.30;99.90;;;;;;6306891;22;20043;-87
2022/12/03 12:35:23;;;;;;;31.98;15.00;;;3.30;99.90;;;;;;6253964;22;20011;-88
2022/12/03 12:37:54;;;;;;;31.60;14.63;;;3.20;99.90;;;;;;6307142;22;20022;-89
2022/12/03 12:40:22;;;;;;;33.58;16.58;;;3.20;99.90;;;;;;6255448;22;20015;-86
2022/12/03 12:42:57;;;;;;;34.50;16.35;;;3.20;99.90;;;;;;6254539;22;20434;-89
2022/12/03 12:45:24;;;;;;;;;;;3.30;99.90;;;;;;6311146;22;20011;-91
2022/12/03 12:48:04;;;;;;;33.70;15.88;;;3.20;99.90;;;;;;6261581;22;19919;-95
2022/12/03 12:50:32;;;;;;;29.80;15.52;;;3.20;99.90;;;;;;6313758;22;20050;-94
2022/12/03 12:53:09;;;;;;;32.58;16.20;;;3.20;99.90;;;;;;6263396;22;20014;-96
2022/12/03 12:55:37;;;;;;;32.92;15.60;;;3.30;99.90;;;;;;6261759;22;20019;-95
2022/12/03 12:58:12;;;;;;;32.90;15.70;;;3.30;99.90;;;;;;6290013;22;20019;-94
2022/12/03 13:00:38;;;;;;;35.95;16.42;;;3.30;99.90;;;;;;6276792;22;20015;-88
2022/12/03 13:03:05;;;;;;;32.75;15.93;;;3.30;99.90;;;;;;6308736;22;20059;-90
2022/12/03 13:05:41;;;;;;;32.08;15.82;;;3.30;99.90;;;;;;6309784;22;20084;-89
2022/12/03 13:08:29;;;;;;;29.70;15.05;;;3.30;99.90;;;;;;6301130;22;20007;-86